createdAt,value
2022-12-03T00:02:04.177Z,60.83
2022-12-03T00:05:07.160Z,62.28
2022-12-03T00:08:10.150Z,60.03
2022-12-03T00:11:14.559Z,62.85
2022-12-03T00:14:17.339Z,64.12
2022-12-03T00:17:20.124Z,53.50
2022-12-03T00:20:26.240Z,56.83
2022-12-03T00:23:28.891Z,59.23
2022-12-03T00:26:31.641Z,56.33
2022-12-03T00:29:34.606Z,58.00
2022-12-03T00:32:37.403Z,62.72
2022-12-03T00:35:40.151Z,59.13
2022-12-03T00:38:49.115Z,61.97
2022-12-03T00:41:52.009Z,57.17
2022-12-03T00:44:55.273Z,62.10
2022-12-03T00:47:58.217Z,57.00
2022-12-03T00:51:01.014Z,62.28
2022-12-03T00:54:03.869Z,57.33
2022-12-03T00:57:06.846Z,63.42
2022-12-03T01:00:11.567Z,62.25
2022-12-03T01:03:17.574Z,59.80
2022-12-03T01:06:20.453Z,66.55
2022-12-03T01:09:26.314Z,56.77
2022-12-03T01:12:29.131Z,61.28
2022-12-03T01:15:31.891Z,58.95
2022-12-03T01:18:34.607Z,58.15
2022-12-03T01:21:38.104Z,63.33
2022-12-03T01:24:40.773Z,58.93
2022-12-03T01:27:46.568Z,65.07
2022-12-03T01:31:08.001Z,66.40
2022-12-03T01:34:10.855Z,61.60
2022-12-03T01:37:13.921Z,58.33
2022-12-03T01:40:20.473Z,60.83
2022-12-03T01:43:24.585Z,73.28
2022-12-03T01:46:34.001Z,66.57
2022-12-03T01:49:43.548Z,60.63
2022-12-03T01:52:46.544Z,68.45
2022-12-03T01:55:49.310Z,65.23
2022-12-03T01:58:52.113Z,61.85
2022-12-03T02:01:54.939Z,72.78
2022-12-03T02:04:58.251Z,56.90
2022-12-03T02:08:01.560Z,59.17
2022-12-03T02:11:21.073Z,63.43
2022-12-03T02:14:23.921Z,63.08
2022-12-03T02:17:27.695Z,57.65
2022-12-03T02:20:32.318Z,62.40
2022-12-03T02:23:56.079Z,62.25
2022-12-03T02:26:58.873Z,63.33
2022-12-03T02:30:01.797Z,65.65
2022-12-03T02:33:06.128Z,61.20
2022-12-03T02:36:09.720Z,59.85
2022-12-03T02:39:12.375Z,64.62
2022-12-03T02:42:33.648Z,62.83
2022-12-03T02:45:42.169Z,55.92
2022-12-03T02:48:47.925Z,62.90
2022-12-03T02:51:50.731Z,58.15
2022-12-03T02:54:54.013Z,61.92
2022-12-03T02:57:59.963Z,57.60
2022-12-03T03:01:05.902Z,63.42
2022-12-03T03:04:09.148Z,60.05
2022-12-03T03:07:11.994Z,59.53
2022-12-03T03:10:19.124Z,62.25
2022-12-03T03:13:22.196Z,81.27
2022-12-03T03:16:28.037Z,64.22
2022-12-03T03:19:31.366Z,63.35
2022-12-03T03:22:39.731Z,68.55
2022-12-03T03:25:45.296Z,57.75
2022-12-03T03:28:50.226Z,58.53
2022-12-03T03:31:53.248Z,65.07
2022-12-03T03:34:56.572Z,59.03
2022-12-03T03:37:59.917Z,55.65
2022-12-03T03:41:04.306Z,55.85
2022-12-03T03:44:10.679Z,55.27
2022-12-03T03:47:13.622Z,54.33
2022-12-03T03:50:16.959Z,56.58
2022-12-03T03:53:20.283Z,55.30
2022-12-03T03:56:24.183Z,55.95
2022-12-03T03:59:27.012Z,53.50
2022-12-03T04:02:29.921Z,56.03
2022-12-03T04:05:32.736Z,52.65
2022-12-03T04:08:36.100Z,61.45
2022-12-03T04:11:57.253Z,57.92
2022-12-03T04:15:00.108Z,56.10
2022-12-03T04:18:21.485Z,55.97
2022-12-03T04:21:43.357Z,56.92
2022-12-03T04:24:46.073Z,61.08
2022-12-03T04:28:07.410Z,63.08
2022-12-03T04:31:28.734Z,68.80
2022-12-03T04:34:50.692Z,69.43
2022-12-03T04:37:54.589Z,64.68
2022-12-03T04:41:06.420Z,58.87
2022-12-03T04:44:30.570Z,69.43
2022-12-03T04:47:39.860Z,64.57
2022-12-03T04:50:43.304Z,61.72
2022-12-03T04:53:46.414Z,71.97
2022-12-03T04:56:52.240Z,63.75
2022-12-03T04:59:58.255Z,58.47
2022-12-03T05:03:01.169Z,54.30
2022-12-03T05:06:04.324Z,55.58
2022-12-03T05:09:07.117Z,58.20
2022-12-03T05:12:09.820Z,53.78
2022-12-03T05:15:12.566Z,56.97
2022-12-03T05:18:15.483Z,56.03
2022-12-03T05:21:18.299Z,50.92
2022-12-03T05:24:21.128Z,58.53
2022-12-03T05:27:24.458Z,54.50
2022-12-03T05:30:27.357Z,52.75
2022-12-03T05:33:30.350Z,50.50
2022-12-03T05:36:33.123Z,49.70
2022-12-03T05:39:36.148Z,54.17
2022-12-03T05:42:54.576Z,52.38
2022-12-03T05:45:57.304Z,54.97
2022-12-03T05:49:00.295Z,52.60
2022-12-03T05:52:03.197Z,52.60
2022-12-03T05:55:07.345Z,55.50
2022-12-03T05:58:10.212Z,50.88
2022-12-03T06:01:12.994Z,55.30
2022-12-03T06:04:15.699Z,63.77
2022-12-03T06:07:18.751Z,52.45
2022-12-03T06:10:25.443Z,53.97
2022-12-03T06:13:28.193Z,62.10
2022-12-03T06:16:31.079Z,59.85
2022-12-03T06:19:34.174Z,58.87
2022-12-03T06:22:36.965Z,60.05
2022-12-03T06:25:39.731Z,68.78
2022-12-03T06:28:48.633Z,75.43
2022-12-03T06:31:51.910Z,67.37
2022-12-03T06:34:55.099Z,70.47
2022-12-03T06:37:58.210Z,67.28
2022-12-03T06:41:01.151Z,65.30
2022-12-03T06:44:04.039Z,69.55
2022-12-03T06:47:06.809Z,67.12
2022-12-03T06:50:09.889Z,65.43
2022-12-03T06:53:12.842Z,73.80
2022-12-03T06:56:20.058Z,75.47
2022-12-03T06:59:25.045Z,65.95
2022-12-03T07:02:28.325Z,65.70
2022-12-03T07:05:31.417Z,63.10
2022-12-03T07:08:34.639Z,65.75
2022-12-03T07:11:40.796Z,66.25
2022-12-03T07:14:45.446Z,67.75
2022-12-03T07:17:50.272Z,67.85
2022-12-03T07:20:53.114Z,62.87
2022-12-03T07:23:56.016Z,67.95
2022-12-03T07:26:59.804Z,71.25
2022-12-03T07:30:02.815Z,63.67
2022-12-03T07:33:05.783Z,68.93
2022-12-03T07:36:09.298Z,72.63
2022-12-03T07:39:12.171Z,68.25
2022-12-03T07:42:15.093Z,66.40
2022-12-03T07:45:17.987Z,71.10
2022-12-03T07:48:20.963Z,72.82
2022-12-03T07:51:28.804Z,83.13
2022-12-03T07:54:34.778Z,69.75
2022-12-03T07:57:37.817Z,63.63
2022-12-03T08:00:41.222Z,65.40
2022-12-03T08:03:44.043Z,63.08
2022-12-03T08:06:46.869Z,65.27
2022-12-03T08:09:50.367Z,64.37
2022-12-03T08:12:54.047Z,63.67
2022-12-03T08:16:01.417Z,68.35
2022-12-03T08:19:08.355Z,67.15
2022-12-03T08:22:15.463Z,67.57
2022-12-03T08:25:26.907Z,64.25
2022-12-03T08:28:30.784Z,61.50
2022-12-03T08:31:34.198Z,64.43
2022-12-03T08:34:44.383Z,56.53
2022-12-03T08:37:47.221Z,57.53
2022-12-03T08:40:52.184Z,59.15
2022-12-03T08:43:55.190Z,54.08
2022-12-03T08:47:10.171Z,55.45
2022-12-03T08:50:40.562Z,61.78
2022-12-03T08:53:55.347Z,59.93
2022-12-03T08:57:02.411Z,60.95
2022-12-03T09:00:20.945Z,61.03
2022-12-03T09:03:24.707Z,84.62
2022-12-03T09:06:27.552Z,101.22
2022-12-03T09:09:30.902Z,65.57
2022-12-03T09:12:33.654Z,64.72
2022-12-03T09:15:36.444Z,109.45
2022-12-03T09:18:39.902Z,58.78
2022-12-03T09:21:42.832Z,64.93
2022-12-03T09:24:45.693Z,69.93
2022-12-03T09:27:48.653Z,59.55
2022-12-03T09:30:51.476Z,62.10
2022-12-03T09:33:54.500Z,53.97
2022-12-03T09:36:57.271Z,58.50
2022-12-03T09:40:00.174Z,53.67
2022-12-03T09:43:03.013Z,66.07
2022-12-03T09:46:06.160Z,55.15
2022-12-03T09:49:15.733Z,54.90
2022-12-03T09:52:26.670Z,60.63
2022-12-03T09:55:31.044Z,52.50
2022-12-03T09:58:35.053Z,45.67
2022-12-03T10:01:41.166Z,54.20
2022-12-03T10:04:44.042Z,59.40
2022-12-03T10:07:47.953Z,42.65
2022-12-03T10:10:53.095Z,53.07
2022-12-03T10:13:56.916Z,54.63
2022-12-03T10:16:59.970Z,52.42
2022-12-03T10:20:02.975Z,45.80
2022-12-03T10:23:06.129Z,50.80
2022-12-03T10:26:08.894Z,52.97
2022-12-03T10:29:20.857Z,53.67
2022-12-03T10:32:29.225Z,49.47
2022-12-03T10:35:41.530Z,48.67
2022-12-03T10:38:44.795Z,53.72
2022-12-03T10:41:47.967Z,49.67
2022-12-03T10:45:07.710Z,59.38
2022-12-03T10:48:19.836Z,51.95
2022-12-03T10:51:22.752Z,57.55
2022-12-03T10:54:26.518Z,60.65
2022-12-03T10:57:32.771Z,47.77
2022-12-03T11:00:36.029Z,46.22
2022-12-03T11:03:38.976Z,53.35
2022-12-03T11:06:41.881Z,54.22
2022-12-03T11:09:46.607Z,48.92
2022-12-03T11:13:27.695Z,53.60
2022-12-03T11:16:39.623Z,54.40
2022-12-03T11:19:45.577Z,57.62
2022-12-03T11:22:49.326Z,57.92
2022-12-03T11:25:52.339Z,57.65
2022-12-03T11:28:55.905Z,60.90
2022-12-03T11:31:58.819Z,55.53
2022-12-03T11:35:16.694Z,54.17
2022-12-03T11:38:38.199Z,55.53
2022-12-03T11:41:41.023Z,54.80
2022-12-03T11:44:44.009Z,66.53
2022-12-03T11:48:00.451Z,63.65
2022-12-03T11:51:03.715Z,53.40
2022-12-03T11:54:06.697Z,52.15
2022-12-03T11:57:36.737Z,116.43
2022-12-03T12:00:39.678Z,52.50
2022-12-03T12:03:44.421Z,52.95
2022-12-03T12:06:53.152Z,46.40
2022-12-03T12:09:56.476Z,46.42
2022-12-03T12:12:59.509Z,52.62
2022-12-03T12:16:05.650Z,58.67
2022-12-03T12:19:28.723Z,48.72
2022-12-03T12:22:32.169Z,47.42
2022-12-03T12:25:37.901Z,54.30
2022-12-03T12:28:41.277Z,48.10
2022-12-03T12:31:44.782Z,50.23
2022-12-03T12:34:51.464Z,49.85
2022-12-03T12:38:03.257Z,49.15
2022-12-03T12:41:08.324Z,47.53
2022-12-03T12:44:13.439Z,52.40
2022-12-03T12:47:16.326Z,49.10
2022-12-03T12:50:20.047Z,47.22
2022-12-03T12:53:27.497Z,46.95
2022-12-03T12:56:31.826Z,44.85
2022-12-03T12:59:34.974Z,42.72
2022-12-03T13:02:42.726Z,47.83
2022-12-03T13:05:48.144Z,45.67
2022-12-03T13:08:51.341Z,47.20
2022-12-03T13:11:57.545Z,46.53
2022-12-03T13:15:01.210Z,47.83
2022-12-03T13:18:34.859Z,45.57
2022-12-03T13:21:44.815Z,46.80
2022-12-03T13:24:52.410Z,48.67
2022-12-03T13:27:55.270Z,45.47
2022-12-03T13:31:10.247Z,47.65
2022-12-03T13:34:24.847Z,49.50
2022-12-03T13:37:28.597Z,45.20
2022-12-03T13:40:35.359Z,48.95
2022-12-03T13:43:44.606Z,52.45
2022-12-03T13:46:47.847Z,48.50
2022-12-03T13:49:57.056Z,52.67
2022-12-03T13:53:02.564Z,47.08
2022-12-03T13:56:27.500Z,51.47
2022-12-03T13:59:33.525Z,50.30
2022-12-03T14:02:36.927Z,56.37
2022-12-03T14:05:40.233Z,51.93
2022-12-03T14:08:43.177Z,56.45
2022-12-03T14:12:04.548Z,56.13
2022-12-03T14:15:08.996Z,59.38
2022-12-03T14:18:14.826Z,55.20
2022-12-03T14:21:17.745Z,64.13
2022-12-03T14:24:20.586Z,63.78
2022-12-03T14:27:25.052Z,86.47
2022-12-03T14:30:28.965Z,64.62
2022-12-03T14:33:32.617Z,61.10
2022-12-03T14:36:35.506Z,69.33
2022-12-03T14:39:38.340Z,62.03
2022-12-03T14:42:41.261Z,60.83
2022-12-03T14:45:44.593Z,70.45
2022-12-03T14:48:48.299Z,64.85
2022-12-03T14:51:51.150Z,60.83
2022-12-03T14:54:54.116Z,64.43
2022-12-03T14:57:56.874Z,64.78
2022-12-03T15:00:59.860Z,64.72
2022-12-03T15:04:02.804Z,60.83
2022-12-03T15:07:06.171Z,68.17
2022-12-03T15:10:09.498Z,61.58
2022-12-03T15:13:12.479Z,65.43
2022-12-03T15:16:15.793Z,62.35
2022-12-03T15:19:18.763Z,63.05
2022-12-03T15:22:22.327Z,64.03
2022-12-03T15:25:26.297Z,60.85
2022-12-03T15:28:31.970Z,60.12
2022-12-03T15:31:34.922Z,53.85
2022-12-03T15:34:38.087Z,52.47
2022-12-03T15:37:41.086Z,55.97
2022-12-03T15:40:44.186Z,54.75
2022-12-03T15:43:51.309Z,53.55
2022-12-03T15:46:54.558Z,63.03
2022-12-03T15:49:57.497Z,64.07
2022-12-03T15:53:06.864Z,64.17
2022-12-03T15:56:12.534Z,69.12
2022-12-03T15:59:18.027Z,104.47
2022-12-03T16:02:21.145Z,74.37
2022-12-03T16:05:25.867Z,65.32
2022-12-03T16:08:28.941Z,66.20
2022-12-03T16:11:32.441Z,61.03
2022-12-03T16:14:35.698Z,67.20
2022-12-03T16:17:38.660Z,80.85
2022-12-03T16:20:41.549Z,88.45
2022-12-03T16:23:44.952Z,70.00
2022-12-03T16:26:47.875Z,68.75
2022-12-03T16:29:51.080Z,59.92
2022-12-03T16:32:57.430Z,61.80
2022-12-03T16:36:01.451Z,61.47
2022-12-03T16:39:05.453Z,61.33
2022-12-03T16:42:14.234Z,62.88
2022-12-03T16:45:33.710Z,67.90
2022-12-03T16:48:37.103Z,67.18
2022-12-03T16:51:43.859Z,70.80
2022-12-03T16:54:47.196Z,70.13
2022-12-03T16:57:50.136Z,71.47
2022-12-03T17:00:56.514Z,69.12
2022-12-03T17:03:59.399Z,66.47
2022-12-03T17:07:02.353Z,83.65
2022-12-03T17:10:06.006Z,101.23
2022-12-03T17:13:10.401Z,101.22
2022-12-03T17:16:13.905Z,103.95
2022-12-03T17:19:17.504Z,124.18
2022-12-03T17:22:20.392Z,168.05
2022-12-03T17:25:23.578Z,285.80
2022-12-03T17:28:26.626Z,190.18
2022-12-03T17:31:29.779Z,103.87
2022-12-03T17:34:32.644Z,68.87
2022-12-03T17:37:36.322Z,72.18
2022-12-03T17:40:39.300Z,71.43
2022-12-03T17:43:42.386Z,68.95
2022-12-03T17:46:45.382Z,80.35
2022-12-03T17:49:48.600Z,75.50
2022-12-03T17:52:51.528Z,77.57
2022-12-03T17:55:54.703Z,70.33
2022-12-03T17:58:58.705Z,75.20
2022-12-03T18:02:07.022Z,74.55
2022-12-03T18:05:10.233Z,86.28
2022-12-03T18:08:13.267Z,108.63
2022-12-03T18:11:16.601Z,84.03
2022-12-03T18:14:19.427Z,92.45
2022-12-03T18:17:22.242Z,81.03
2022-12-03T18:20:25.415Z,74.20
2022-12-03T18:23:29.026Z,78.62
2022-12-03T18:26:32.047Z,77.77
2022-12-03T18:29:35.144Z,84.40
2022-12-03T18:32:38.276Z,87.95
2022-12-03T18:35:42.093Z,94.45
2022-12-03T18:38:45.415Z,93.90
2022-12-03T18:41:49.867Z,103.73
2022-12-03T18:44:55.391Z,102.57
2022-12-03T18:47:59.328Z,96.47
2022-12-03T18:51:17.633Z,101.97
2022-12-03T18:54:27.749Z,97.75
2022-12-03T18:57:36.332Z,94.13
2022-12-03T19:00:42.929Z,91.47
2022-12-03T19:03:51.705Z,101.03
2022-12-03T19:06:56.124Z,87.70
2022-12-03T19:09:59.508Z,98.65
2022-12-03T19:13:03.974Z,102.80
2022-12-03T19:16:08.421Z,96.87
2022-12-03T19:19:11.874Z,107.40
2022-12-03T19:22:15.138Z,105.45
2022-12-03T19:25:18.265Z,93.07
2022-12-03T19:28:21.466Z,87.77
2022-12-03T19:31:24.678Z,90.50
2022-12-03T19:34:28.634Z,95.62
2022-12-03T19:37:34.067Z,97.35
2022-12-03T19:40:37.324Z,94.53
2022-12-03T19:43:40.872Z,96.80
2022-12-03T19:46:44.189Z,99.40
2022-12-03T19:49:47.346Z,89.25
2022-12-03T19:52:53.623Z,86.85
2022-12-03T19:56:15.001Z,97.30
2022-12-03T19:59:18.166Z,72.60
2022-12-03T20:02:21.065Z,74.05
2022-12-03T20:05:31.847Z,67.55
2022-12-03T20:08:39.412Z,73.45
2022-12-03T20:11:45.134Z,68.50
2022-12-03T20:14:51.920Z,68.90
2022-12-03T20:17:55.103Z,61.10
2022-12-03T20:20:59.232Z,59.28
2022-12-03T20:24:02.985Z,56.13
2022-12-03T20:27:06.072Z,53.17
2022-12-03T20:30:09.459Z,61.43
2022-12-03T20:33:13.856Z,56.85
2022-12-03T20:36:24.129Z,59.55
2022-12-03T20:39:27.348Z,62.90
2022-12-03T20:42:31.630Z,64.07
2022-12-03T20:45:34.701Z,53.00
2022-12-03T20:48:38.507Z,54.75
2022-12-03T20:51:42.827Z,57.35
2022-12-03T20:54:46.296Z,55.35
2022-12-03T20:57:50.296Z,52.75
2022-12-03T21:00:53.212Z,58.93
2022-12-03T21:03:57.927Z,65.93
2022-12-03T21:07:00.865Z,53.35
2022-12-03T21:10:04.059Z,56.20
2022-12-03T21:13:07.112Z,51.72
2022-12-03T21:16:13.100Z,55.60
2022-12-03T21:19:18.175Z,56.70
2022-12-03T21:22:21.043Z,58.78
2022-12-03T21:25:26.720Z,57.00
2022-12-03T21:28:29.991Z,52.47
2022-12-03T21:31:33.087Z,57.10
2022-12-03T21:34:36.687Z,61.53
2022-12-03T21:37:39.745Z,60.65
2022-12-03T21:40:42.858Z,59.20
2022-12-03T21:43:45.973Z,58.08
2022-12-03T21:47:11.701Z,57.90
2022-12-03T21:50:11.996Z,53.08
2022-12-03T21:53:14.831Z,53.58
2022-12-03T21:56:27.324Z,57.42
2022-12-03T21:59:33.100Z,58.60
2022-12-03T22:02:39.311Z,60.23
2022-12-03T22:05:43.764Z,66.68
2022-12-03T22:08:47.175Z,55.50
2022-12-03T22:11:50.140Z,57.55
2022-12-03T22:14:53.983Z,55.15
2022-12-03T22:17:56.868Z,53.33
2022-12-03T22:21:07.234Z,49.35
2022-12-03T22:24:10.134Z,53.50
2022-12-03T22:27:17.151Z,57.13
2022-12-03T22:30:20.196Z,49.55
2022-12-03T22:33:23.716Z,52.70
2022-12-03T22:36:27.604Z,59.03
2022-12-03T22:39:30.540Z,54.78
2022-12-03T22:42:33.415Z,54.22
2022-12-03T22:45:36.303Z,56.65
2022-12-03T22:48:40.404Z,82.80
2022-12-03T22:51:46.457Z,72.82
2022-12-03T22:54:55.666Z,54.15
2022-12-03T22:57:58.496Z,57.80
2022-12-03T23:01:03.068Z,63.38
2022-12-03T23:04:08.281Z,54.77
2022-12-03T23:07:11.255Z,60.45
2022-12-03T23:10:14.704Z,56.92
2022-12-03T23:13:18.635Z,57.03
2022-12-03T23:16:29.312Z,55.33
2022-12-03T23:19:32.300Z,50.27
2022-12-03T23:22:35.166Z,54.40
2022-12-03T23:25:41.232Z,47.92
2022-12-03T23:28:45.742Z,54.45
2022-12-03T23:31:48.706Z,52.47
2022-12-03T23:34:54.959Z,50.60
2022-12-03T23:37:57.781Z,50.55
2022-12-03T23:41:18.100Z,49.38
2022-12-03T23:44:20.951Z,52.80
2022-12-03T23:47:24.250Z,48.75
2022-12-03T23:50:27.965Z,51.67
2022-12-03T23:53:30.953Z,48.78
2022-12-03T23:56:33.943Z,49.97
2022-12-03T23:59:37.007Z,51.28
